Unionville, Iowa
Current Conditions -  °F | °C
As of 5:10 PM on Monday 22 Dec 2014 (Local Time) from KTVK Reporting Station
Light Rain Light Rain  
Wind Chill: 34°   Ceiling: 100
Heat Index: 39°   Visibility: 6mi
Dew Point: 39°   Wind: 8mph
Humidity: 100%   Direction: 110°ESE
Pressure: 29.47"   Gusts: NA
Location:  40.82°N, 92.7°W
Report Text: KTVK 222310Z AUTO 11007KT 6SM -RA OVC001 04/04 A2947 RMK AO2
Loading
Personal Weather Stations






























Interactive Weather Map New forecast layout! Learn more

10-Day Weather Forecast

Advertisements
Track Severe Weather on mobile